Indialantic, Florida
Current Conditions -  °F | °C
As of 10:53 AM on Friday 31 Oct 2014 (Local Time) from KMLB Reporting Station
Few Clouds Few Clouds  
Wind Chill: 77°   Ceiling: Unl
Heat Index: 79°   Visibility: 10mi
Dew Point: 67°   Wind: 9mph
Humidity: 71%   Direction: 300°WNW
Pressure: 29.86"   Gusts: NA
Location:  28.09°N, 80.57°W
Report Text: KMLB 311453Z 30008KT 10SM FEW023 25/19 A2986 RMK AO2 SLP109 T02500194 50005
Loading
Personal Weather Stations






























Interactive Weather Map New forecast layout! Learn more

10-Day Weather Forecast

Advertisements
Track Severe Weather on mobile